Accueil
METAR-TAF:

METAR-TAF

Aéroports :

Aéroport de Fort Severn

Fort Severn, Ontario, Canada

latitude: 56-01-08N, longitude: 87-40-34W, altitude: 16 m

Observation

Le bulletin a été fait il y a 25 minutes, à 15:00 UTC
Vent 17 kt de est avec des rafales jusqu'à 26 kt
Température 1°C
Humidité 80%
Pression 1014 hPa
Visibilité: 14.5 km
Ciel clair

METAR: CYER 021500Z AUTO 10017G26KT 9SM CLR 01/M02 A2995 RMK SLP144

Heure: 11:25 (15:25 UTC)

Prévision

Le bulletin a été fait il y a 47 minutes, à 14:38 UTC
Prévision valable du 02 à 15 UTC au 02 à 19 UTC
Vent 18 kt de est avec des rafales jusqu'à 28 kt
Visibilité: 10 km
Quelques nuages à une hauteur de 6000 ft
Temporairement
du 02 à 15 UTC au 02 à 19 UTC
Nuages fragmentés à une hauteur de 6000 ft
Nuages fragmentés à une hauteur de 18000 ft

TAF: CYER 021438Z 0215/0219 09018G28KT P6SM FEW060 TEMPO 0215/0219 BKN060 BKN180 RMK FCST BASED ON AUTO OBS. NXT FCST WILL BE ISSUED AT 030845Z

Observations et prévisions météorologiques de plus de 4000 aéroports (messages METAR et TAF).

Les stations disponibles sont représentées par des disques jaunes et rouges sur la carte.

Passer la souris dessus pour voir le nom de la station.

Cliquer dessus pour voir les observations et prévisions météorologiques.

Pour changer de carte: cliquez sur les boutons verts avec une croix noire pour zoomer, sur le bouton vert avec un tiret pour effectuer un zoom arrière, ou sur les flèches vertes pour les cartes adjacentes.


METAR-TAF: